sensor_id;sensor_type;location;lat;lon;timestamp;temperature;humidity
17762;DHT22;9005;48.838;10.112;2024-01-15T00:00:57;-5.20;81.00
17762;DHT22;9005;48.838;10.112;2024-01-15T00:03:25;-5.20;80.80
17762;DHT22;9005;48.838;10.112;2024-01-15T00:05:52;-5.10;80.60
17762;DHT22;9005;48.838;10.112;2024-01-15T00:08:19;-5.10;80.50
17762;DHT22;9005;48.838;10.112;2024-01-15T00:10:45;-5.10;80.40
17762;DHT22;9005;48.838;10.112;2024-01-15T00:13:12;-5.10;80.10
17762;DHT22;9005;48.838;10.112;2024-01-15T00:15:39;-5.10;80.40
17762;DHT22;9005;48.838;10.112;2024-01-15T00:18:06;-5.10;80.10
17762;DHT22;9005;48.838;10.112;2024-01-15T00:20:34;-5.10;80.20
17762;DHT22;9005;48.838;10.112;2024-01-15T00:23:01;-5.10;80.00
17762;DHT22;9005;48.838;10.112;2024-01-15T00:25:27;-5.10;80.20
17762;DHT22;9005;48.838;10.112;2024-01-15T00:27:54;-5.10;80.10
17762;DHT22;9005;48.838;10.112;2024-01-15T00:30:21;-5.00;80.20
17762;DHT22;9005;48.838;10.112;2024-01-15T00:32:47;-5.00;79.90
17762;DHT22;9005;48.838;10.112;2024-01-15T00:35:14;-5.00;79.90
17762;DHT22;9005;48.838;10.112;2024-01-15T00:37:43;-5.00;80.00
17762;DHT22;9005;48.838;10.112;2024-01-15T00:40:09;-5.00;79.80
17762;DHT22;9005;48.838;10.112;2024-01-15T00:42:36;-5.00;79.80
17762;DHT22;9005;48.838;10.112;2024-01-15T00:45:04;-4.90;79.70
17762;DHT22;9005;48.838;10.112;2024-01-15T00:47:33;-4.90;79.80
17762;DHT22;9005;48.838;10.112;2024-01-15T00:50:00;-5.00;80.00
17762;DHT22;9005;48.838;10.112;2024-01-15T00:52:26;-4.90;80.00
17762;DHT22;9005;48.838;10.112;2024-01-15T00:54:54;-5.00;79.80
17762;DHT22;9005;48.838;10.112;2024-01-15T00:57:21;-5.00;79.50
17762;DHT22;9005;48.838;10.112;2024-01-15T00:59:48;-4.90;79.70
17762;DHT22;9005;48.838;10.112;2024-01-15T01:02:14;-4.90;79.60
17762;DHT22;9005;48.838;10.112;2024-01-15T01:04:41;-4.90;79.50
17762;DHT22;9005;48.838;10.112;2024-01-15T01:07:08;-4.80;79.60
17762;DHT22;9005;48.838;10.112;2024-01-15T01:09:34;-4.80;79.30
17762;DHT22;9005;48.838;10.112;2024-01-15T01:12:03;-4.80;79.10
17762;DHT22;9005;48.838;10.112;2024-01-15T01:14:30;-4.80;78.90
17762;DHT22;9005;48.838;10.112;2024-01-15T01:16:56;-4.80;78.60
17762;DHT22;9005;48.838;10.112;2024-01-15T01:19:23;-4.80;78.60
17762;DHT22;9005;48.838;10.112;2024-01-15T01:21:50;-4.70;78.80
17762;DHT22;9005;48.838;10.112;2024-01-15T01:24:17;-4.70;78.80
17762;DHT22;9005;48.838;10.112;2024-01-15T01:26:44;-4.70;78.80
17762;DHT22;9005;48.838;10.112;2024-01-15T01:29:13;-4.70;78.50
17762;DHT22;9005;48.838;10.112;2024-01-15T01:31:42;-4.60;78.60
17762;DHT22;9005;48.838;10.112;2024-01-15T01:34:09;-4.60;78.10
17762;DHT22;9005;48.838;10.112;2024-01-15T01:36:36;-4.60;78.20
17762;DHT22;9005;48.838;10.112;2024-01-15T01:39:03;-4.60;78.10
17762;DHT22;9005;48.838;10.112;2024-01-15T01:41:29;-4.60;78.30
17762;DHT22;9005;48.838;10.112;2024-01-15T01:43:56;-4.60;78.40
17762;DHT22;9005;48.838;10.112;2024-01-15T01:46:25;-4.50;78.20
17762;DHT22;9005;48.838;10.112;2024-01-15T01:48:53;-4.50;77.80
17762;DHT22;9005;48.838;10.112;2024-01-15T01:51:21;-4.50;77.90
17762;DHT22;9005;48.838;10.112;2024-01-15T01:53:49;-4.40;78.10
17762;DHT22;9005;48.838;10.112;2024-01-15T01:56:17;-4.40;78.20
17762;DHT22;9005;48.838;10.112;2024-01-15T01:58:44;-4.40;78.20
17762;DHT22;9005;48.838;10.112;2024-01-15T02:01:12;-4.30;78.00
17762;DHT22;9005;48.838;10.112;2024-01-15T02:03:40;-4.30;77.80
17762;DHT22;9005;48.838;10.112;2024-01-15T02:06:08;-4.20;77.70
17762;DHT22;9005;48.838;10.112;2024-01-15T02:08:35;-4.20;77.60
17762;DHT22;9005;48.838;10.112;2024-01-15T02:11:02;-4.20;77.30
17762;DHT22;9005;48.838;10.112;2024-01-15T02:13:28;-4.20;77.40
17762;DHT22;9005;48.838;10.112;2024-01-15T02:15:55;-4.10;77.10
17762;DHT22;9005;48.838;10.112;2024-01-15T02:18:22;-4.10;77.30
17762;DHT22;9005;48.838;10.112;2024-01-15T02:20:50;-4.10;76.90
17762;DHT22;9005;48.838;10.112;2024-01-15T02:23:18;-4.10;77.10
17762;DHT22;9005;48.838;10.112;2024-01-15T02:25:46;-4.00;77.10
17762;DHT22;9005;48.838;10.112;2024-01-15T02:28:14;-4.00;77.20
17762;DHT22;9005;48.838;10.112;2024-01-15T02:30:42;-3.90;76.80
17762;DHT22;9005;48.838;10.112;2024-01-15T02:33:10;-3.80;76.60
17762;DHT22;9005;48.838;10.112;2024-01-15T02:35:37;-3.70;76.40
17762;DHT22;9005;48.838;10.112;2024-01-15T02:38:04;-3.70;76.10
17762;DHT22;9005;48.838;10.112;2024-01-15T02:40:33;-3.60;75.90
17762;DHT22;9005;48.838;10.112;2024-01-15T02:42:59;-3.50;75.90
17762;DHT22;9005;48.838;10.112;2024-01-15T02:45:27;-3.40;75.50
17762;DHT22;9005;48.838;10.112;2024-01-15T02:47:54;-3.30;75.10
17762;DHT22;9005;48.838;10.112;2024-01-15T02:50:20;-3.30;75.00
17762;DHT22;9005;48.838;10.112;2024-01-15T02:52:47;-3.20;74.70
17762;DHT22;9005;48.838;10.112;2024-01-15T02:55:14;-3.20;74.70
17762;DHT22;9005;48.838;10.112;2024-01-15T02:57:42;-3.10;74.50
17762;DHT22;9005;48.838;10.112;2024-01-15T03:00:09;-3.10;74.20
17762;DHT22;9005;48.838;10.112;2024-01-15T03:02:37;-3.00;74.10
17762;DHT22;9005;48.838;10.112;2024-01-15T03:05:05;-2.90;74.10
17762;DHT22;9005;48.838;10.112;2024-01-15T03:07:32;-2.90;73.70
17762;DHT22;9005;48.838;10.112;2024-01-15T03:09:58;-2.90;73.90
17762;DHT22;9005;48.838;10.112;2024-01-15T03:12:25;-2.90;73.60
17762;DHT22;9005;48.838;10.112;2024-01-15T03:14:53;-2.80;73.30
17762;DHT22;9005;48.838;10.112;2024-01-15T03:17:20;-2.80;73.50
17762;DHT22;9005;48.838;10.112;2024-01-15T03:19:47;-2.80;73.30
17762;DHT22;9005;48.838;10.112;2024-01-15T03:22:15;-2.80;73.50
17762;DHT22;9005;48.838;10.112;2024-01-15T03:24:41;-2.80;73.30
17762;DHT22;9005;48.838;10.112;2024-01-15T03:27:08;-2.80;73.30
17762;DHT22;9005;48.838;10.112;2024-01-15T03:29:35;-2.80;73.50
17762;DHT22;9005;48.838;10.112;2024-01-15T03:32:03;-2.80;73.30
17762;DHT22;9005;48.838;10.112;2024-01-15T03:34:30;-2.80;73.60
17762;DHT22;9005;48.838;10.112;2024-01-15T03:36:57;-2.80;73.40
17762;DHT22;9005;48.838;10.112;2024-01-15T03:39:24;-2.80;73.60
17762;DHT22;9005;48.838;10.112;2024-01-15T03:41:51;-2.80;73.60
17762;DHT22;9005;48.838;10.112;2024-01-15T03:44:18;-2.80;73.70
17762;DHT22;9005;48.838;10.112;2024-01-15T03:46:44;-2.80;73.60
17762;DHT22;9005;48.838;10.112;2024-01-15T03:49:12;-2.80;73.80
17762;DHT22;9005;48.838;10.112;2024-01-15T03:51:39;-2.80;74.00
17762;DHT22;9005;48.838;10.112;2024-01-15T03:54:06;-2.80;74.00
17762;DHT22;9005;48.838;10.112;2024-01-15T03:56:33;-2.80;74.10
17762;DHT22;9005;48.838;10.112;2024-01-15T03:58:59;-2.70;74.20
17762;DHT22;9005;48.838;10.112;2024-01-15T04:01:26;-2.80;74.60
17762;DHT22;9005;48.838;10.112;2024-01-15T04:03:53;-2.70;74.30
17762;DHT22;9005;48.838;10.112;2024-01-15T04:06:21;-2.70;74.20
17762;DHT22;9005;48.838;10.112;2024-01-15T04:08:47;-2.70;74.30
17762;DHT22;9005;48.838;10.112;2024-01-15T04:11:14;-2.70;74.00
17762;DHT22;9005;48.838;10.112;2024-01-15T04:13:41;-2.70;74.10
17762;DHT22;9005;48.838;10.112;2024-01-15T04:16:07;-2.70;74.30
17762;DHT22;9005;48.838;10.112;2024-01-15T04:18:34;-2.70;74.00
17762;DHT22;9005;48.838;10.112;2024-01-15T04:21:04;-2.70;73.90
17762;DHT22;9005;48.838;10.112;2024-01-15T04:23:32;-2.70;73.70
17762;DHT22;9005;48.838;10.112;2024-01-15T04:25:58;-2.70;73.80
17762;DHT22;9005;48.838;10.112;2024-01-15T04:28:25;-2.70;73.70
17762;DHT22;9005;48.838;10.112;2024-01-15T04:30:52;-2.60;73.20
17762;DHT22;9005;48.838;10.112;2024-01-15T04:33:18;-2.60;73.00
17762;DHT22;9005;48.838;10.112;2024-01-15T04:35:45;-2.50;72.50
17762;DHT22;9005;48.838;10.112;2024-01-15T04:38:12;-2.50;72.30
17762;DHT22;9005;48.838;10.112;2024-01-15T04:40:40;-2.50;72.30
17762;DHT22;9005;48.838;10.112;2024-01-15T04:43:07;-2.50;72.40
17762;DHT22;9005;48.838;10.112;2024-01-15T04:45:33;-2.50;72.40
17762;DHT22;9005;48.838;10.112;2024-01-15T04:48:00;-2.40;72.20
17762;DHT22;9005;48.838;10.112;2024-01-15T04:50:27;-2.40;71.90
17762;DHT22;9005;48.838;10.112;2024-01-15T04:52:54;-2.40;71.80
17762;DHT22;9005;48.838;10.112;2024-01-15T04:55:20;-2.40;71.90
17762;DHT22;9005;48.838;10.112;2024-01-15T04:57:48;-2.40;71.70
17762;DHT22;9005;48.838;10.112;2024-01-15T05:00:15;-2.40;71.60
17762;DHT22;9005;48.838;10.112;2024-01-15T05:02:42;-2.40;71.50
17762;DHT22;9005;48.838;10.112;2024-01-15T05:05:09;-2.40;71.70
17762;DHT22;9005;48.838;10.112;2024-01-15T05:07:36;-2.40;71.90
17762;DHT22;9005;48.838;10.112;2024-01-15T05:10:03;-2.40;71.80
17762;DHT22;9005;48.838;10.112;2024-01-15T05:12:29;-2.40;71.70
17762;DHT22;9005;48.838;10.112;2024-01-15T05:14:57;-2.40;71.70
17762;DHT22;9005;48.838;10.112;2024-01-15T05:17:24;-2.40;72.00
17762;DHT22;9005;48.838;10.112;2024-01-15T05:19:51;-2.40;72.00
17762;DHT22;9005;48.838;10.112;2024-01-15T05:22:17;-2.40;72.10
17762;DHT22;9005;48.838;10.112;2024-01-15T05:24:44;-2.40;72.10
17762;DHT22;9005;48.838;10.112;2024-01-15T05:27:11;-2.40;72.20
17762;DHT22;9005;48.838;10.112;2024-01-15T05:29:37;-2.40;72.20
17762;DHT22;9005;48.838;10.112;2024-01-15T05:32:05;-2.40;72.10
17762;DHT22;9005;48.838;10.112;2024-01-15T05:34:32;-2.40;72.10
17762;DHT22;9005;48.838;10.112;2024-01-15T05:36:59;-2.40;72.20
17762;DHT22;9005;48.838;10.112;2024-01-15T05:39:26;-2.40;72.40
17762;DHT22;9005;48.838;10.112;2024-01-15T05:41:53;-2.40;72.30
17762;DHT22;9005;48.838;10.112;2024-01-15T05:44:19;-2.40;72.20
17762;DHT22;9005;48.838;10.112;2024-01-15T05:46:46;-2.40;72.40
17762;DHT22;9005;48.838;10.112;2024-01-15T05:49:14;-2.40;72.50
17762;DHT22;9005;48.838;10.112;2024-01-15T05:51:41;-2.50;72.50
17762;DHT22;9005;48.838;10.112;2024-01-15T05:54:07;-2.50;72.70
17762;DHT22;9005;48.838;10.112;2024-01-15T05:56:34;-2.50;72.70
17762;DHT22;9005;48.838;10.112;2024-01-15T05:59:01;-2.50;72.80
17762;DHT22;9005;48.838;10.112;2024-01-15T06:01:27;-2.50;72.80
17762;DHT22;9005;48.838;10.112;2024-01-15T06:03:54;-2.50;72.80
17762;DHT22;9005;48.838;10.112;2024-01-15T06:06:22;-2.50;72.80
17762;DHT22;9005;48.838;10.112;2024-01-15T06:08:49;-2.40;72.50
17762;DHT22;9005;48.838;10.112;2024-01-15T06:11:16;-2.40;72.50
17762;DHT22;9005;48.838;10.112;2024-01-15T06:13:42;-2.40;72.10
17762;DHT22;9005;48.838;10.112;2024-01-15T06:16:13;-2.40;72.00
17762;DHT22;9005;48.838;10.112;2024-01-15T06:18:41;-2.40;72.10
17762;DHT22;9005;48.838;10.112;2024-01-15T06:21:07;-2.40;72.10
17762;DHT22;9005;48.838;10.112;2024-01-15T06:23:37;-2.30;72.10
17762;DHT22;9005;48.838;10.112;2024-01-15T06:26:04;-2.30;72.10
17762;DHT22;9005;48.838;10.112;2024-01-15T06:28:30;-2.30;71.90
17762;DHT22;9005;48.838;10.112;2024-01-15T06:30:57;-2.30;72.20
17762;DHT22;9005;48.838;10.112;2024-01-15T06:33:24;-2.40;72.30
17762;DHT22;9005;48.838;10.112;2024-01-15T06:35:51;-2.40;72.80
17762;DHT22;9005;48.838;10.112;2024-01-15T06:38:17;-2.40;72.80
17762;DHT22;9005;48.838;10.112;2024-01-15T06:40:46;-2.40;72.70
17762;DHT22;9005;48.838;10.112;2024-01-15T06:43:14;-2.40;73.00
17762;DHT22;9005;48.838;10.112;2024-01-15T06:45:40;-2.40;73.10
17762;DHT22;9005;48.838;10.112;2024-01-15T06:48:07;-2.40;73.30
17762;DHT22;9005;48.838;10.112;2024-01-15T06:50:34;-2.40;73.40
17762;DHT22;9005;48.838;10.112;2024-01-15T06:53:01;-2.30;73.50
17762;DHT22;9005;48.838;10.112;2024-01-15T06:55:27;-2.40;73.60
17762;DHT22;9005;48.838;10.112;2024-01-15T06:57:56;-2.40;73.70
17762;DHT22;9005;48.838;10.112;2024-01-15T07:00:22;-2.30;73.10
17762;DHT22;9005;48.838;10.112;2024-01-15T07:02:49;-2.30;73.20
17762;DHT22;9005;48.838;10.112;2024-01-15T07:05:17;-2.30;73.20
17762;DHT22;9005;48.838;10.112;2024-01-15T07:07:43;-2.30;72.80
17762;DHT22;9005;48.838;10.112;2024-01-15T07:10:10;-2.30;72.60
17762;DHT22;9005;48.838;10.112;2024-01-15T07:12:37;-2.30;72.80
17762;DHT22;9005;48.838;10.112;2024-01-15T07:15:05;-2.20;72.80
17762;DHT22;9005;48.838;10.112;2024-01-15T07:17:33;-2.20;72.60
17762;DHT22;9005;48.838;10.112;2024-01-15T07:20:00;-2.30;72.80
17762;DHT22;9005;48.838;10.112;2024-01-15T07:22:27;-2.20;72.40
17762;DHT22;9005;48.838;10.112;2024-01-15T07:24:54;-2.20;72.50
17762;DHT22;9005;48.838;10.112;2024-01-15T07:27:20;-2.20;72.30
17762;DHT22;9005;48.838;10.112;2024-01-15T07:29:47;-2.20;72.50
17762;DHT22;9005;48.838;10.112;2024-01-15T07:32:15;-2.20;72.30
17762;DHT22;9005;48.838;10.112;2024-01-15T07:34:42;-2.20;72.30
17762;DHT22;9005;48.838;10.112;2024-01-15T07:37:09;-2.20;72.60
17762;DHT22;9005;48.838;10.112;2024-01-15T07:39:35;-2.20;72.60
17762;DHT22;9005;48.838;10.112;2024-01-15T07:42:02;-2.20;72.40
17762;DHT22;9005;48.838;10.112;2024-01-15T07:44:29;-2.10;72.50
17762;DHT22;9005;48.838;10.112;2024-01-15T07:46:56;-2.20;72.70
17762;DHT22;9005;48.838;10.112;2024-01-15T07:49:24;-2.20;72.80
17762;DHT22;9005;48.838;10.112;2024-01-15T07:51:51;-2.20;72.80
17762;DHT22;9005;48.838;10.112;2024-01-15T07:54:17;-2.10;72.70
17762;DHT22;9005;48.838;10.112;2024-01-15T07:56:54;-2.10;72.50
17762;DHT22;9005;48.838;10.112;2024-01-15T07:59:21;-2.10;72.40
17762;DHT22;9005;48.838;10.112;2024-01-15T08:01:47;-2.10;72.60
17762;DHT22;9005;48.838;10.112;2024-01-15T08:04:14;-2.00;73.10
17762;DHT22;9005;48.838;10.112;2024-01-15T08:06:42;-2.00;72.70
17762;DHT22;9005;48.838;10.112;2024-01-15T08:09:09;-2.00;72.40
17762;DHT22;9005;48.838;10.112;2024-01-15T08:11:36;-2.00;72.40
17762;DHT22;9005;48.838;10.112;2024-01-15T08:14:02;-2.00;71.90
17762;DHT22;9005;48.838;10.112;2024-01-15T08:16:29;-1.90;71.90
17762;DHT22;9005;48.838;10.112;2024-01-15T08:18:56;-1.90;71.30
17762;DHT22;9005;48.838;10.112;2024-01-15T08:21:23;-1.90;71.40
17762;DHT22;9005;48.838;10.112;2024-01-15T08:23:51;-1.90;71.20
17762;DHT22;9005;48.838;10.112;2024-01-15T08:26:17;-1.90;71.40
17762;DHT22;9005;48.838;10.112;2024-01-15T08:28:44;-1.90;71.30
17762;DHT22;9005;48.838;10.112;2024-01-15T08:31:11;-1.90;71.40
17762;DHT22;9005;48.838;10.112;2024-01-15T08:33:39;-1.90;71.50
17762;DHT22;9005;48.838;10.112;2024-01-15T08:36:05;-1.80;71.20
17762;DHT22;9005;48.838;10.112;2024-01-15T08:38:32;-1.80;71.20
17762;DHT22;9005;48.838;10.112;2024-01-15T08:41:00;-1.80;71.20
17762;DHT22;9005;48.838;10.112;2024-01-15T08:43:27;-1.80;71.10
17762;DHT22;9005;48.838;10.112;2024-01-15T08:45:54;-1.80;71.10
17762;DHT22;9005;48.838;10.112;2024-01-15T08:48:21;-1.80;71.20
17762;DHT22;9005;48.838;10.112;2024-01-15T08:50:47;-1.80;70.70
17762;DHT22;9005;48.838;10.112;2024-01-15T08:53:14;-1.80;71.00
17762;DHT22;9005;48.838;10.112;2024-01-15T08:55:41;-1.80;70.90
17762;DHT22;9005;48.838;10.112;2024-01-15T08:58:10;-1.70;70.40
17762;DHT22;9005;48.838;10.112;2024-01-15T09:00:37;-1.70;70.30
17762;DHT22;9005;48.838;10.112;2024-01-15T09:03:04;-1.70;70.00
17762;DHT22;9005;48.838;10.112;2024-01-15T09:05:31;-1.70;70.00
17762;DHT22;9005;48.838;10.112;2024-01-15T09:07:58;-1.70;70.00
17762;DHT22;9005;48.838;10.112;2024-01-15T09:10:24;-1.70;70.00
17762;DHT22;9005;48.838;10.112;2024-01-15T09:12:51;-1.70;69.90
17762;DHT22;9005;48.838;10.112;2024-01-15T09:15:19;-1.70;69.80
17762;DHT22;9005;48.838;10.112;2024-01-15T09:17:46;-1.70;69.70
17762;DHT22;9005;48.838;10.112;2024-01-15T09:20:13;-1.70;69.60
17762;DHT22;9005;48.838;10.112;2024-01-15T09:22:40;-1.70;69.50
17762;DHT22;9005;48.838;10.112;2024-01-15T09:25:07;-1.60;69.40
17762;DHT22;9005;48.838;10.112;2024-01-15T09:27:35;-1.60;69.30
17762;DHT22;9005;48.838;10.112;2024-01-15T09:30:01;-1.60;68.80
17762;DHT22;9005;48.838;10.112;2024-01-15T09:32:30;-1.60;69.10
17762;DHT22;9005;48.838;10.112;2024-01-15T09:34:58;-1.60;68.80
17762;DHT22;9005;48.838;10.112;2024-01-15T09:37:25;-1.50;68.70
17762;DHT22;9005;48.838;10.112;2024-01-15T09:39:51;-1.50;68.20
17762;DHT22;9005;48.838;10.112;2024-01-15T09:42:19;-1.50;67.80
17762;DHT22;9005;48.838;10.112;2024-01-15T09:44:47;-1.50;67.30
17762;DHT22;9005;48.838;10.112;2024-01-15T09:47:15;-1.40;67.20
17762;DHT22;9005;48.838;10.112;2024-01-15T09:49:44;-1.40;66.90
17762;DHT22;9005;48.838;10.112;2024-01-15T09:52:11;-1.40;66.60
17762;DHT22;9005;48.838;10.112;2024-01-15T09:54:38;-1.30;66.30
17762;DHT22;9005;48.838;10.112;2024-01-15T09:57:05;-1.30;66.20
17762;DHT22;9005;48.838;10.112;2024-01-15T09:59:33;-1.20;65.80
17762;DHT22;9005;48.838;10.112;2024-01-15T10:02:01;-1.20;65.60
17762;DHT22;9005;48.838;10.112;2024-01-15T10:04:28;-1.10;65.10
17762;DHT22;9005;48.838;10.112;2024-01-15T10:06:57;-1.10;64.70
17762;DHT22;9005;48.838;10.112;2024-01-15T10:09:23;-1.10;65.10
17762;DHT22;9005;48.838;10.112;2024-01-15T10:11:50;-1.10;64.80
17762;DHT22;9005;48.838;10.112;2024-01-15T10:14:16;-1.10;64.40
17762;DHT22;9005;48.838;10.112;2024-01-15T10:16:43;-1.10;64.60
17762;DHT22;9005;48.838;10.112;2024-01-15T10:19:10;-1.10;64.60
17762;DHT22;9005;48.838;10.112;2024-01-15T10:21:37;-1.10;64.50
17762;DHT22;9005;48.838;10.112;2024-01-15T10:24:06;-1.10;64.50
17762;DHT22;9005;48.838;10.112;2024-01-15T10:26:33;-1.10;64.40
17762;DHT22;9005;48.838;10.112;2024-01-15T10:29:00;-1.00;63.90
17762;DHT22;9005;48.838;10.112;2024-01-15T10:31:27;-1.00;64.10
17762;DHT22;9005;48.838;10.112;2024-01-15T10:33:54;-1.00;63.60
17762;DHT22;9005;48.838;10.112;2024-01-15T10:36:22;-1.00;63.40
17762;DHT22;9005;48.838;10.112;2024-01-15T10:38:49;-0.90;63.30
17762;DHT22;9005;48.838;10.112;2024-01-15T10:41:17;-0.90;63.20
17762;DHT22;9005;48.838;10.112;2024-01-15T10:43:44;-0.90;63.20
17762;DHT22;9005;48.838;10.112;2024-01-15T10:46:11;-0.90;63.00
17762;DHT22;9005;48.838;10.112;2024-01-15T10:48:38;-0.90;62.90
17762;DHT22;9005;48.838;10.112;2024-01-15T10:51:05;-0.90;62.60
17762;DHT22;9005;48.838;10.112;2024-01-15T10:53:38;-0.90;62.90
17762;DHT22;9005;48.838;10.112;2024-01-15T10:56:06;-0.80;62.90
17762;DHT22;9005;48.838;10.112;2024-01-15T10:58:34;-0.90;62.80
17762;DHT22;9005;48.838;10.112;2024-01-15T11:01:02;-0.90;62.90
17762;DHT22;9005;48.838;10.112;2024-01-15T11:03:30;-0.90;63.20
17762;DHT22;9005;48.838;10.112;2024-01-15T11:05:57;-0.90;62.80
17762;DHT22;9005;48.838;10.112;2024-01-15T11:08:25;-0.90;62.60
17762;DHT22;9005;48.838;10.112;2024-01-15T11:10:52;-0.90;62.70
17762;DHT22;9005;48.838;10.112;2024-01-15T11:13:21;-0.80;62.60
17762;DHT22;9005;48.838;10.112;2024-01-15T11:16:02;-0.70;62.70
17762;DHT22;9005;48.838;10.112;2024-01-15T11:18:30;-0.70;62.40
17762;DHT22;9005;48.838;10.112;2024-01-15T11:21:22;-0.60;62.10
17762;DHT22;9005;48.838;10.112;2024-01-15T11:23:52;-0.70;61.90
17762;DHT22;9005;48.838;10.112;2024-01-15T11:26:33;-0.60;62.50
17762;DHT22;9005;48.838;10.112;2024-01-15T11:29:02;-0.60;62.10
17762;DHT22;9005;48.838;10.112;2024-01-15T11:31:57;-0.60;62.10
17762;DHT22;9005;48.838;10.112;2024-01-15T11:34:50;-0.60;61.90
17762;DHT22;9005;48.838;10.112;2024-01-15T11:37:17;-0.60;62.10
17762;DHT22;9005;48.838;10.112;2024-01-15T11:39:44;-0.50;62.30
17762;DHT22;9005;48.838;10.112;2024-01-15T11:42:12;-0.50;62.60
17762;DHT22;9005;48.838;10.112;2024-01-15T11:44:40;-0.50;62.80
17762;DHT22;9005;48.838;10.112;2024-01-15T11:47:09;-0.60;63.40
17762;DHT22;9005;48.838;10.112;2024-01-15T11:49:58;-0.60;64.00
17762;DHT22;9005;48.838;10.112;2024-01-15T11:52:26;-0.70;66.30
17762;DHT22;9005;48.838;10.112;2024-01-15T11:54:57;-1.00;69.60
17762;DHT22;9005;48.838;10.112;2024-01-15T11:57:41;-1.20;71.30
17762;DHT22;9005;48.838;10.112;2024-01-15T12:00:11;-1.30;74.20
17762;DHT22;9005;48.838;10.112;2024-01-15T12:02:39;-1.30;75.40
17762;DHT22;9005;48.838;10.112;2024-01-15T12:05:07;-1.40;75.90
17762;DHT22;9005;48.838;10.112;2024-01-15T12:07:34;-1.40;76.70
17762;DHT22;9005;48.838;10.112;2024-01-15T12:10:01;-1.50;77.70
17762;DHT22;9005;48.838;10.112;2024-01-15T12:12:37;-1.50;78.50
17762;DHT22;9005;48.838;10.112;2024-01-15T12:15:04;-1.60;79.10
17762;DHT22;9005;48.838;10.112;2024-01-15T12:17:31;-1.70;79.50
17762;DHT22;9005;48.838;10.112;2024-01-15T12:19:59;-1.80;80.90
17762;DHT22;9005;48.838;10.112;2024-01-15T12:22:26;-1.90;81.80
17762;DHT22;9005;48.838;10.112;2024-01-15T12:24:54;-1.90;82.60
17762;DHT22;9005;48.838;10.112;2024-01-15T12:27:21;-1.90;82.60
17762;DHT22;9005;48.838;10.112;2024-01-15T12:29:47;-1.90;83.40
17762;DHT22;9005;48.838;10.112;2024-01-15T12:32:14;-1.90;83.30
17762;DHT22;9005;48.838;10.112;2024-01-15T12:34:41;-1.80;82.10
17762;DHT22;9005;48.838;10.112;2024-01-15T12:37:09;-1.70;81.30
17762;DHT22;9005;48.838;10.112;2024-01-15T12:39:37;-1.70;80.70
17762;DHT22;9005;48.838;10.112;2024-01-15T12:42:04;-1.70;80.90
17762;DHT22;9005;48.838;10.112;2024-01-15T12:44:32;-1.70;81.10
17762;DHT22;9005;48.838;10.112;2024-01-15T12:46:57;-1.70;81.30
17762;DHT22;9005;48.838;10.112;2024-01-15T12:49:25;-1.70;81.10
17762;DHT22;9005;48.838;10.112;2024-01-15T12:51:52;-1.60;81.20
17762;DHT22;9005;48.838;10.112;2024-01-15T12:54:20;-1.60;81.20
17762;DHT22;9005;48.838;10.112;2024-01-15T12:56:47;-1.60;80.80
17762;DHT22;9005;48.838;10.112;2024-01-15T12:59:14;-1.60;81.80
17762;DHT22;9005;48.838;10.112;2024-01-15T13:01:41;-1.60;81.90
17762;DHT22;9005;48.838;10.112;2024-01-15T13:04:08;-1.60;83.20
17762;DHT22;9005;48.838;10.112;2024-01-15T13:06:35;-1.70;84.10
17762;DHT22;9005;48.838;10.112;2024-01-15T13:09:02;-1.80;84.90
17762;DHT22;9005;48.838;10.112;2024-01-15T13:11:32;-1.80;85.30
17762;DHT22;9005;48.838;10.112;2024-01-15T13:13:59;-1.90;85.60
17762;DHT22;9005;48.838;10.112;2024-01-15T13:16:25;-1.90;85.70
17762;DHT22;9005;48.838;10.112;2024-01-15T13:18:54;-1.90;86.00
17762;DHT22;9005;48.838;10.112;2024-01-15T13:21:21;-1.80;85.80
17762;DHT22;9005;48.838;10.112;2024-01-15T13:23:48;-1.80;85.50
17762;DHT22;9005;48.838;10.112;2024-01-15T13:26:15;-1.80;85.20
17762;DHT22;9005;48.838;10.112;2024-01-15T13:28:44;-1.70;85.60
17762;DHT22;9005;48.838;10.112;2024-01-15T13:31:11;-1.70;85.70
17762;DHT22;9005;48.838;10.112;2024-01-15T13:33:38;-1.80;86.40
17762;DHT22;9005;48.838;10.112;2024-01-15T13:36:06;-1.80;86.60
17762;DHT22;9005;48.838;10.112;2024-01-15T13:38:35;-1.80;86.60
17762;DHT22;9005;48.838;10.112;2024-01-15T13:41:04;-1.80;87.30
17762;DHT22;9005;48.838;10.112;2024-01-15T13:43:31;-1.80;87.90
17762;DHT22;9005;48.838;10.112;2024-01-15T13:45:59;-1.80;88.20
17762;DHT22;9005;48.838;10.112;2024-01-15T13:48:26;-1.80;88.80
17762;DHT22;9005;48.838;10.112;2024-01-15T13:50:52;-1.80;88.80
17762;DHT22;9005;48.838;10.112;2024-01-15T13:53:19;-1.80;88.70
17762;DHT22;9005;48.838;10.112;2024-01-15T13:55:46;-1.80;88.30
17762;DHT22;9005;48.838;10.112;2024-01-15T13:58:13;-1.80;88.00
17762;DHT22;9005;48.838;10.112;2024-01-15T14:00:39;-1.70;88.00
17762;DHT22;9005;48.838;10.112;2024-01-15T14:03:08;-1.70;87.70
17762;DHT22;9005;48.838;10.112;2024-01-15T14:05:34;-1.70;87.30
17762;DHT22;9005;48.838;10.112;2024-01-15T14:08:01;-1.70;87.90
17762;DHT22;9005;48.838;10.112;2024-01-15T14:10:28;-1.60;87.60
17762;DHT22;9005;48.838;10.112;2024-01-15T14:12:55;-1.60;87.50
17762;DHT22;9005;48.838;10.112;2024-01-15T14:15:22;-1.60;87.90
17762;DHT22;9005;48.838;10.112;2024-01-15T14:17:49;-1.70;88.50
17762;DHT22;9005;48.838;10.112;2024-01-15T14:20:17;-1.70;89.00
17762;DHT22;9005;48.838;10.112;2024-01-15T14:22:43;-1.70;89.40
17762;DHT22;9005;48.838;10.112;2024-01-15T14:25:10;-1.70;89.80
17762;DHT22;9005;48.838;10.112;2024-01-15T14:27:37;-1.70;89.90
17762;DHT22;9005;48.838;10.112;2024-01-15T14:30:04;-1.70;90.20
17762;DHT22;9005;48.838;10.112;2024-01-15T14:32:33;-1.70;90.20
17762;DHT22;9005;48.838;10.112;2024-01-15T14:35:01;-1.70;90.10
17762;DHT22;9005;48.838;10.112;2024-01-15T14:37:30;-1.70;89.80
17762;DHT22;9005;48.838;10.112;2024-01-15T14:39:57;-1.70;89.70
17762;DHT22;9005;48.838;10.112;2024-01-15T14:42:24;-1.70;89.40
17762;DHT22;9005;48.838;10.112;2024-01-15T14:44:51;-1.70;88.90
17762;DHT22;9005;48.838;10.112;2024-01-15T14:47:18;-1.70;89.00
17762;DHT22;9005;48.838;10.112;2024-01-15T14:49:48;-1.70;89.10
17762;DHT22;9005;48.838;10.112;2024-01-15T14:52:15;-1.70;88.90
17762;DHT22;9005;48.838;10.112;2024-01-15T14:54:44;-1.70;88.80
17762;DHT22;9005;48.838;10.112;2024-01-15T14:57:10;-1.80;88.60
17762;DHT22;9005;48.838;10.112;2024-01-15T14:59:37;-1.80;88.80
17762;DHT22;9005;48.838;10.112;2024-01-15T15:02:04;-1.80;88.90
17762;DHT22;9005;48.838;10.112;2024-01-15T15:04:31;-1.80;89.10
17762;DHT22;9005;48.838;10.112;2024-01-15T15:06:58;-1.80;89.00
17762;DHT22;9005;48.838;10.112;2024-01-15T15:09:24;-1.80;89.20
17762;DHT22;9005;48.838;10.112;2024-01-15T15:11:52;-1.80;89.30
17762;DHT22;9005;48.838;10.112;2024-01-15T15:14:19;-1.90;89.00
17762;DHT22;9005;48.838;10.112;2024-01-15T15:16:47;-1.90;88.50
17762;DHT22;9005;48.838;10.112;2024-01-15T15:19:14;-1.90;88.10
17762;DHT22;9005;48.838;10.112;2024-01-15T15:21:40;-1.90;88.20
17762;DHT22;9005;48.838;10.112;2024-01-15T15:24:07;-1.90;88.30
17762;DHT22;9005;48.838;10.112;2024-01-15T15:26:34;-1.90;87.70
17762;DHT22;9005;48.838;10.112;2024-01-15T15:29:03;-2.00;88.30
17762;DHT22;9005;48.838;10.112;2024-01-15T15:31:30;-2.00;88.80